Time;durP1;ratioP1;P1;durP2;ratioP2;P2;SDS_P1;SDS_P2;PMS_P1;PMS_P2;Temp;Humidity;BMP_temperature;BMP_pressure;BME280_temperature;BME280_humidity;BME280_pressure;Samples;Min_cycle;Max_cycle;Signal;HPM_P1;HPM_P2
2021/07/25 00:00:18;;;;;;;77.07;49.50;;;;;;;18.42;100.00;100748.63;3576426;40;20029;-63
2021/07/25 00:02:44;;;;;;;71.20;48.75;;;;;;;18.40;100.00;100750.69;3578271;40;20041;-63
2021/07/25 00:05:11;;;;;;;84.38;53.45;;;;;;;18.40;100.00;100745.25;3578197;40;20073;-62
2021/07/25 00:07:37;;;;;;;86.43;52.05;;;;;;;18.40;100.00;100753.41;3576411;40;20037;-64
2021/07/25 00:10:05;;;;;;;74.03;49.28;;;;;;;18.33;100.00;100749.75;3576213;40;20053;-63
2021/07/25 00:12:32;;;;;;;68.85;47.92;;;;;;;18.24;100.00;100750.91;3572607;40;20043;-62
2021/07/25 00:14:59;;;;;;;73.00;48.70;;;;;;;18.27;100.00;100750.53;3571479;40;20037;-65
2021/07/25 00:17:25;;;;;;;74.35;48.70;;;;;;;18.27;100.00;100745.06;3569039;40;20061;-62
2021/07/25 00:19:52;;;;;;;83.97;51.00;;;;;;;18.28;100.00;100738.59;3569259;40;20049;-65
2021/07/25 00:22:18;;;;;;;76.80;52.42;;;;;;;18.21;100.00;100743.94;3577785;40;20381;-65
2021/07/25 00:24:50;;;;;;;80.93;50.92;;;;;;;18.30;100.00;100744.69;3578051;40;20033;-62
2021/07/25 00:27:19;;;;;;;82.68;51.70;;;;;;;18.23;100.00;100739.16;3572654;40;20053;-62
2021/07/25 00:29:46;;;;;;;82.13;53.92;;;;;;;18.20;100.00;100743.09;3571581;40;20065;-62
2021/07/25 00:32:14;;;;;;;95.07;58.35;;;;;;;18.23;100.00;100743.75;3573786;40;20043;-63
2021/07/25 00:34:41;;;;;;;93.35;57.20;;;;;;;18.16;100.00;100733.63;3571789;40;20114;-63
2021/07/25 00:37:08;;;;;;;102.82;59.25;;;;;;;18.14;100.00;100738.44;3571436;40;20416;-63
2021/07/25 00:39:35;;;;;;;86.53;52.83;;;;;;;18.19;100.00;100732.41;3572025;40;20049;-63
2021/07/25 00:42:04;;;;;;;85.28;54.65;;;;;;;18.25;100.00;100748.00;3571770;40;20100;-64
2021/07/25 00:44:31;;;;;;;81.78;52.60;;;;;;;18.31;100.00;100744.50;3572435;40;20083;-62
2021/07/25 00:47:00;;;;;;;87.10;55.35;;;;;;;18.30;100.00;100744.69;3573224;40;20034;-63
2021/07/25 00:49:29;;;;;;;85.35;55.00;;;;;;;18.32;100.00;100748.09;3574221;40;20090;-63
2021/07/25 00:51:56;;;;;;;91.75;55.60;;;;;;;18.27;100.00;100745.06;3572827;40;20406;-63
2021/07/25 00:54:23;;;;;;;87.55;55.63;;;;;;;18.28;100.00;100741.31;3576153;40;20076;-64
2021/07/25 00:56:50;;;;;;;85.80;54.08;;;;;;;18.23;100.00;100736.44;3574437;40;20428;-62
2021/07/25 00:59:16;;;;;;;79.97;53.03;;;;;;;18.13;100.00;100744.06;3572214;40;20030;-63
2021/07/25 01:01:43;;;;;;;87.70;55.17;;;;;;;18.10;100.00;100744.44;3576284;40;20366;-63
2021/07/25 01:04:28;;;;;;;101.65;60.00;;;;;;;18.05;100.00;100742.28;3573328;40;20037;-63
2021/07/25 01:07:02;;;;;;;100.95;57.13;;;;;;;17.94;100.00;100735.41;3573937;40;20388;-62
2021/07/25 01:09:36;;;;;;;107.35;64.32;;;;;;;17.99;100.00;100737.56;3570950;40;20052;-63
2021/07/25 01:12:06;;;;;;;104.38;61.65;;;;;;;18.03;100.00;100738.88;3572120;40;20037;-66
2021/07/25 01:14:35;;;;;;;111.35;64.80;;;;;;;17.97;100.00;100736.94;3571784;40;20039;-63
2021/07/25 01:17:27;;;;;;;112.60;63.15;;;;;;;17.99;100.00;100732.13;3575764;40;20049;-63
2021/07/25 01:19:55;;;;;;;99.72;57.00;;;;;;;17.94;100.00;100729.13;3580201;40;20059;-65
2021/07/25 01:22:21;;;;;;;108.47;60.95;;;;;;;17.91;100.00;100724.06;3584183;40;20031;-66
2021/07/25 01:24:48;;;;;;;97.85;57.92;;;;;;;17.95;100.00;100726.22;3585942;40;20081;-63
2021/07/25 01:27:22;;;;;;;107.20;62.88;;;;;;;17.93;100.00;100722.00;3581890;40;20039;-63
2021/07/25 01:29:51;;;;;;;99.20;59.75;;;;;;;17.96;100.00;100719.75;3580216;40;20029;-67
2021/07/25 01:32:18;;;;;;;110.22;62.92;;;;;;;17.93;100.00;100722.00;3581574;40;20040;-64
2021/07/25 01:34:46;;;;;;;106.78;57.92;;;;;;;17.86;100.00;100722.72;3586857;40;20302;-65
2021/07/25 01:37:15;;;;;;;100.10;57.55;;;;;;;17.83;100.00;100723.09;3587724;40;20036;-66
2021/07/25 01:39:42;;;;;;;111.47;62.80;;;;;;;17.81;100.00;100721.59;3586503;40;20037;-63
2021/07/25 01:42:09;;;;;;;114.25;63.88;;;;;;;17.86;100.00;100716.44;3580543;40;20029;-66
2021/07/25 01:44:35;;;;;;;96.47;57.55;;;;;;;17.77;100.00;100715.69;3585557;40;20045;-64
2021/07/25 01:47:02;;;;;;;108.35;60.03;;;;;;;17.72;100.00;100712.66;3584525;40;20041;-65
2021/07/25 01:49:28;;;;;;;106.72;60.45;;;;;;;17.79;100.00;100713.59;3586555;40;20048;-64
2021/07/25 01:51:54;;;;;;;97.43;54.70;;;;;;;17.77;100.00;100704.78;3582674;40;20037;-65
2021/07/25 01:54:22;;;;;;;97.35;57.10;;;;;;;17.79;100.00;100702.72;3584097;40;20036;-63
2021/07/25 01:56:49;;;;;;;100.82;57.20;;;;;;;17.76;100.00;100707.69;3583530;40;20054;-65
2021/07/25 01:59:15;;;;;;;100.85;57.65;;;;;;;17.67;100.00;100707.78;3577531;40;20037;-65
2021/07/25 02:01:41;;;;;;;105.20;59.10;;;;;;;17.62;100.00;100706.66;3582294;40;20041;-64
2021/07/25 02:04:08;;;;;;;99.10;59.03;;;;;;;17.64;100.00;100701.88;3579987;40;20040;-63
2021/07/25 02:06:35;;;;;;;102.85;57.15;;;;;;;17.61;100.00;100702.25;3585036;40;20036;-62
2021/07/25 02:09:02;;;;;;;107.78;61.65;;;;;;;17.58;100.00;100702.59;3584228;40;20036;-64
2021/07/25 02:11:29;;;;;;;114.05;62.10;;;;;;;17.54;100.00;100701.31;3584779;40;20069;-64
2021/07/25 02:13:56;;;;;;;115.47;62.25;;;;;;;17.56;100.00;100705.50;3582578;40;20063;-63
2021/07/25 02:16:22;;;;;;;103.47;60.25;;;;;;;17.54;100.00;100702.13;3584607;40;20121;-64
2021/07/25 02:18:49;;;;;;;109.75;64.45;;;;;;;17.61;100.00;100704.97;3584613;40;20064;-66
2021/07/25 02:21:15;;;;;;;107.57;62.85;;;;;;;17.49;100.00;100705.41;3582978;40;20040;-63
2021/07/25 02:23:42;;;;;;;124.00;66.30;;;;;;;17.47;100.00;100704.75;3579502;40;20543;-65
2021/07/25 02:26:08;;;;;;;123.35;68.20;;;;;;;17.43;100.00;100711.59;3584629;40;20387;-64
2021/07/25 02:28:36;;;;;;;125.60;69.20;;;;;;;17.42;100.00;100709.91;3586753;40;20038;-64
2021/07/25 02:31:02;;;;;;;135.23;70.75;;;;;;;17.39;100.00;100709.41;3584124;40;20037;-63
2021/07/25 02:33:29;;;;;;;125.07;68.57;;;;;;;17.41;100.00;100710.09;3585596;40;20029;-65
2021/07/25 02:35:56;;;;;;;136.65;69.78;;;;;;;17.39;100.00;100707.56;3585838;40;20042;-63
2021/07/25 02:38:22;;;;;;;120.97;65.75;;;;;;;17.42;100.00;100704.47;3582579;40;20080;-63
2021/07/25 02:40:49;;;;;;;123.25;67.78;;;;;;;17.42;100.00;100699.03;3582128;40;20044;-62
2021/07/25 02:43:15;;;;;;;127.07;70.60;;;;;;;17.52;100.00;100694.16;3580728;40;20041;-66
2021/07/25 02:45:43;;;;;;;117.25;64.13;;;;;;;17.50;100.00;100690.78;3580649;40;20029;-63
2021/07/25 02:48:09;;;;;;;141.23;71.40;;;;;;;17.45;100.00;100686.94;3583620;40;20029;-63
2021/07/25 02:50:36;;;;;;;136.35;72.68;;;;;;;17.41;100.00;100694.59;3586202;40;20060;-63
2021/07/25 02:53:02;;;;;;;120.88;66.18;;;;;;;17.42;100.00;100695.47;3581900;40;20376;-63
2021/07/25 02:55:29;;;;;;;131.38;68.88;;;;;;;17.39;100.00;100691.25;3583173;40;20037;-63
2021/07/25 02:57:55;;;;;;;146.38;72.22;;;;;;;17.34;100.00;100696.38;3580814;40;20048;-63
2021/07/25 03:00:22;;;;;;;141.90;74.40;;;;;;;17.28;100.00;100691.69;3580124;40;20480;-63
2021/07/25 03:02:50;;;;;;;178.77;77.05;;;;;;;17.28;100.00;100686.25;3582233;40;20369;-64
2021/07/25 03:05:16;;;;;;;149.38;74.78;;;;;;;17.33;100.00;100683.81;3586217;40;20063;-63
2021/07/25 03:07:42;;;;;;;135.73;72.47;;;;;;;17.30;100.00;100671.44;3584966;40;20406;-63
2021/07/25 03:10:10;;;;;;;132.48;70.07;;;;;;;17.22;100.00;100676.09;3580855;40;20053;-66
2021/07/25 03:12:36;;;;;;;149.10;73.47;;;;;;;17.15;100.00;100676.84;3585048;40;20049;-66
2021/07/25 03:15:03;;;;;;;141.68;74.47;;;;;;;17.14;100.00;100677.88;3585839;40;20039;-63
2021/07/25 03:17:29;;;;;;;148.98;73.70;;;;;;;17.12;100.00;100688.09;3581039;40;20060;-63
2021/07/25 03:19:57;;;;;;;155.63;78.25;;;;;;;17.09;100.00;100674.00;3579955;40;20041;-62
2021/07/25 03:22:23;;;;;;;147.27;75.97;;;;;;;17.14;100.00;100683.31;3582179;40;20055;-63
2021/07/25 03:24:50;;;;;;;132.63;72.15;;;;;;;17.17;100.00;100679.38;3581923;40;20037;-65
2021/07/25 03:27:16;;;;;;;103.80;62.10;;;;;;;17.15;100.00;100674.13;3580791;40;20055;-63
2021/07/25 03:29:43;;;;;;;130.27;68.70;;;;;;;17.11;100.00;100675.50;3581675;40;20025;-66
2021/07/25 03:32:09;;;;;;;107.97;61.88;;;;;;;17.02;100.00;100676.63;3580301;40;20515;-63
2021/07/25 03:34:36;;;;;;;134.93;69.72;;;;;;;16.98;100.00;100678.84;3582372;40;20361;-63
2021/07/25 03:37:04;;;;;;;154.73;74.82;;;;;;;16.99;100.00;100677.00;3579409;40;20025;-63
2021/07/25 03:39:31;;;;;;;127.63;68.47;;;;;;;16.94;100.00;100679.41;3583740;40;20045;-63
2021/07/25 03:41:58;;;;;;;118.97;64.05;;;;;;;16.96;100.00;100693.63;3581644;40;20033;-64
2021/07/25 03:44:24;;;;;;;126.97;69.95;;;;;;;16.95;100.00;100681.09;3583442;40;20151;-63
2021/07/25 03:46:51;;;;;;;147.48;71.90;;;;;;;16.86;100.00;100682.13;3580225;40;20055;-63
2021/07/25 03:52:12;;;;;;;133.98;71.65;;;;;;;16.84;100.00;100684.19;3566114;22;20301;-63
2021/07/25 03:54:42;;;;;;;129.73;70.22;;;;;;;16.77;100.00;100684.94;3571249;40;20037;-64
2021/07/25 03:57:09;;;;;;;156.57;74.80;;;;;;;16.83;100.00;100680.66;3572246;40;20041;-63
2021/07/25 03:59:35;;;;;;;139.20;73.10;;;;;;;16.88;100.00;100674.69;3570650;40;20070;-62
2021/07/25 04:02:02;;;;;;;133.82;68.22;;;;;;;16.82;100.00;100673.50;3570102;40;20137;-63
2021/07/25 04:04:28;;;;;;;135.85;71.13;;;;;;;16.82;100.00;100674.34;3569384;40;20030;-63
2021/07/25 04:06:55;;;;;;;147.20;73.30;;;;;;;16.68;100.00;100685.16;3570317;40;20285;-65
2021/07/25 04:09:23;;;;;;;133.38;70.68;;;;;;;16.75;100.00;100691.56;3570977;40;20274;-65
2021/07/25 04:11:51;;;;;;;117.30;66.72;;;;;;;16.68;100.00;100680.59;3568516;40;20473;-63
2021/07/25 04:14:17;;;;;;;164.25;78.70;;;;;;;16.76;100.00;100688.66;3573042;40;20121;-66
2021/07/25 04:16:44;;;;;;;144.25;74.30;;;;;;;16.74;100.00;100693.44;3573485;40;20385;-63
2021/07/25 04:19:10;;;;;;;187.07;80.35;;;;;;;16.70;100.00;100694.00;3570503;40;20036;-63
2021/07/25 04:21:37;;;;;;;161.13;78.70;;;;;;;16.69;100.00;100697.72;3573099;40;20115;-62
2021/07/25 04:24:03;;;;;;;127.40;68.15;;;;;;;16.68;100.00;100696.03;3570078;40;20036;-65
2021/07/25 04:26:32;;;;;;;149.60;77.70;;;;;;;16.78;100.00;100697.50;3569841;40;20368;-63
2021/07/25 04:28:59;;;;;;;142.73;73.20;;;;;;;16.74;100.00;100700.75;3569225;40;20265;-62
2021/07/25 04:31:26;;;;;;;156.25;80.20;;;;;;;16.78;100.00;100700.22;3570764;40;20040;-63
2021/07/25 04:33:54;;;;;;;172.13;81.88;;;;;;;16.82;100.00;100698.81;3608179;22;20048;-62
2021/07/25 04:36:25;;;;;;;149.82;76.82;;;;;;;16.87;100.00;100703.75;3597961;40;20029;-62
2021/07/25 04:38:53;;;;;;;149.75;76.20;;;;;;;16.86;100.00;100709.31;3597671;40;20078;-63
2021/07/25 04:41:22;;;;;;;158.07;80.22;;;;;;;16.92;100.00;100714.09;3598199;40;20272;-62
2021/07/25 04:43:50;;;;;;;;;;;;;;;16.91;100.00;100718.66;3596117;40;20086;-63
2021/07/25 04:46:23;;;;;;;188.45;84.90;;;;;;;16.93;100.00;100723.91;3596544;40;19954;-62
2021/07/25 04:48:55;;;;;;;148.13;78.10;;;;;;;16.91;100.00;100725.97;3597905;40;20171;-63
2021/07/25 04:51:23;;;;;;;165.52;81.65;;;;;;;16.96;100.00;100726.25;3594733;40;20070;-64
2021/07/25 04:53:50;;;;;;;147.55;76.82;;;;;;;16.96;100.00;100731.69;3597738;40;20054;-62
2021/07/25 04:56:20;;;;;;;145.68;74.75;;;;;;;16.99;100.00;100732.19;3597502;40;20143;-63
2021/07/25 04:58:49;;;;;;;165.63;80.15;;;;;;;17.02;100.00;100732.84;3598077;40;20062;-62
2021/07/25 05:01:21;;;;;;;139.95;72.85;;;;;;;17.17;100.00;100744.66;3597165;40;20367;-63
2021/07/25 05:03:48;;;;;;;147.07;75.55;;;;;;;17.23;100.00;100737.63;3597463;40;20040;-64
2021/07/25 05:06:15;;;;;;;127.10;63.20;;;;;;;17.14;100.00;100729.53;3597623;40;20293;-63
2021/07/25 05:08:43;;;;;;;116.82;63.28;;;;;;;17.15;100.00;100730.38;3598034;40;20054;-65
2021/07/25 05:11:17;;;;;;;119.72;65.80;;;;;;;17.29;100.00;100734.19;3597413;40;20038;-62
2021/07/25 05:13:46;;;;;;;119.25;65.63;;;;;;;17.31;100.00;100743.00;3594842;40;20028;-64
2021/07/25 05:16:26;;;;;;;111.88;65.28;;;;;;;17.25;100.00;100744.56;3593236;40;20137;-63
2021/07/25 05:19:05;;;;;;;131.07;67.47;;;;;;;17.32;100.00;100744.69;3598054;40;20058;-62
2021/07/25 05:21:39;;;;;;;118.82;68.53;;;;;;;17.37;100.00;100739.53;3593700;40;20055;-63
2021/07/25 05:24:08;;;;;;;119.57;65.78;;;;;;;17.36;100.00;100745.16;3594928;40;20032;-65
2021/07/25 05:26:37;;;;;;;90.65;54.83;;;;;;;17.32;100.00;100736.53;3598202;40;20340;-63
2021/07/25 05:32:00;;;;;;;105.40;61.47;;;;;;;17.54;100.00;100733.97;3619171;22;20092;-63
2021/07/25 05:34:27;;;;;;;97.10;60.05;;;;;;;17.58;100.00;100721.66;3601628;39;20068;-62
2021/07/25 05:36:53;;;;;;;106.45;60.38;;;;;;;17.47;100.00;100715.63;3607148;39;20034;-63
2021/07/25 05:39:19;;;;;;;111.68;61.03;;;;;;;17.46;100.00;100719.41;3601951;39;20404;-62
2021/07/25 05:41:46;;;;;;;116.78;63.17;;;;;;;17.57;100.00;100717.25;3601610;39;20036;-63
2021/07/25 05:44:12;;;;;;;117.13;64.32;;;;;;;17.56;100.00;100721.00;3601182;39;20132;-65
2021/07/25 05:46:39;;;;;;;124.57;66.72;;;;;;;17.68;100.00;100719.50;3601040;39;20044;-65
2021/07/25 05:49:06;;;;;;;87.30;55.30;;;;;;;17.72;100.00;100720.00;3606002;39;20040;-65
2021/07/25 05:51:33;;;;;;;103.78;60.88;;;;;;;17.89;100.00;100726.09;3602528;39;20044;-62
2021/07/25 05:53:59;;;;;;;98.82;60.40;;;;;;;18.15;100.00;100725.63;3604954;39;20035;-63
2021/07/25 05:56:26;;;;;;;93.22;56.85;;;;;;;18.49;100.00;100724.16;3599865;39;20040;-63
2021/07/25 05:58:52;;;;;;;86.70;56.38;;;;;;;18.71;100.00;100725.03;3599842;39;20059;-65
2021/07/25 06:01:19;;;;;;;82.35;51.20;;;;;;;18.45;100.00;100728.34;3602129;39;20045;-64
2021/07/25 06:03:45;;;;;;;88.72;55.40;;;;;;;18.72;100.00;100734.94;3602865;39;20396;-63
2021/07/25 06:06:13;;;;;;;83.30;52.67;;;;;;;18.69;100.00;100732.59;3604835;39;20046;-63
2021/07/25 06:08:39;;;;;;;94.60;57.40;;;;;;;18.77;100.00;100735.22;3603665;39;20046;-65
2021/07/25 06:11:06;;;;;;;80.05;53.33;;;;;;;18.82;100.00;100727.28;3603317;39;20056;-62
2021/07/25 06:13:32;;;;;;;84.35;53.58;;;;;;;18.92;100.00;100732.44;3602219;39;20317;-65
2021/07/25 06:15:58;;;;;;;80.00;51.88;;;;;;;18.88;100.00;100721.06;3600863;39;20033;-62
2021/07/25 06:18:25;;;;;;;72.82;48.17;;;;;;;18.71;100.00;100727.78;3597886;39;20047;-64
2021/07/25 06:20:51;;;;;;;77.93;48.50;;;;;;;18.90;100.00;100713.56;3599031;39;20295;-66
2021/07/25 06:23:19;;;;;;;68.60;47.30;;;;;;;18.88;100.00;100718.34;3602605;39;20135;-63
2021/07/25 06:25:46;;;;;;;64.38;44.10;;;;;;;18.93;100.00;100719.66;3600341;39;20106;-63
2021/07/25 06:28:12;;;;;;;67.57;43.83;;;;;;;18.73;100.00;100720.25;3601840;39;20044;-63
2021/07/25 06:33:24;;;;;;;64.97;43.72;;;;;;;19.02;100.00;100721.19;3625867;22;20043;-61
2021/07/25 06:35:51;;;;;;;56.35;40.65;;;;;;;19.01;100.00;100719.53;3607770;39;20279;-62
2021/07/25 06:38:18;;;;;;;56.10;40.40;;;;;;;19.21;100.00;100720.56;3606824;39;20382;-64
2021/07/25 06:40:47;;;;;;;53.65;36.78;;;;;;;19.66;100.00;100727.63;3605421;39;20047;-63
2021/07/25 06:43:14;;;;;;;50.33;35.13;;;;;;;19.42;100.00;100716.09;3607606;39;20042;-62
2021/07/25 06:45:41;;;;;;;52.72;34.85;;;;;;;19.32;100.00;100721.91;3607567;39;20370;-65
2021/07/25 06:48:18;;;;;;;47.28;34.67;;;;;;;19.53;100.00;100731.91;3606496;39;20039;-62
2021/07/25 06:50:46;;;;;;;39.53;31.67;;;;;;;19.35;100.00;100731.59;3608400;39;20035;-62
2021/07/25 06:53:12;;;;;;;46.22;32.25;;;;;;;19.43;100.00;100728.69;3609039;39;20047;-63
2021/07/25 06:55:40;;;;;;;43.17;30.80;;;;;;;19.20;100.00;100729.78;3609377;39;20046;-63
2021/07/25 06:58:06;;;;;;;45.45;33.45;;;;;;;19.35;100.00;100724.22;3608814;39;20042;-63
2021/07/25 07:00:34;;;;;;;40.50;31.05;;;;;;;19.82;100.00;100710.94;3609179;39;20027;-63
2021/07/25 07:03:00;;;;;;;38.15;29.30;;;;;;;19.86;100.00;100717.69;3608045;39;20035;-63
2021/07/25 07:05:28;;;;;;;33.95;26.88;;;;;;;19.82;100.00;100718.28;3608803;39;20136;-61
2021/07/25 07:07:56;;;;;;;40.08;27.42;;;;;;;19.88;100.00;100718.34;3605127;39;20123;-63
2021/07/25 07:10:25;;;;;;;35.25;28.25;;;;;;;19.89;100.00;100714.56;3607082;39;20075;-62
2021/07/25 07:12:54;;;;;;;33.38;26.48;;;;;;;19.85;100.00;100712.44;3608417;39;20281;-63
2021/07/25 07:15:23;;;;;;;34.10;25.05;;;;;;;19.76;100.00;100706.25;3607007;39;20359;-62
2021/07/25 07:17:50;;;;;;;34.63;25.58;;;;;;;19.97;100.00;100704.53;3607874;39;20043;-64
2021/07/25 07:20:17;;;;;;;33.00;24.08;;;;;;;19.71;100.00;100712.34;3608279;39;20412;-63
2021/07/25 07:22:51;;;;;;;28.90;22.05;;;;;;;19.91;100.00;100714.38;3608956;39;20108;-65
2021/07/25 07:25:17;;;;;;;29.00;21.40;;;;;;;20.52;100.00;100702.63;3606360;39;20024;-63
2021/07/25 07:27:44;;;;;;;28.90;21.38;;;;;;;20.45;100.00;100709.97;3608884;39;20055;-63
2021/07/25 07:30:12;;;;;;;28.60;20.95;;;;;;;20.52;100.00;100705.38;3605942;39;20039;-64
2021/07/25 07:32:39;;;;;;;26.77;21.30;;;;;;;20.50;100.00;100712.94;3600441;39;20064;-65
2021/07/25 07:35:06;;;;;;;23.60;19.40;;;;;;;20.51;100.00;100717.38;3603474;39;20055;-62
2021/07/25 07:37:32;;;;;;;24.98;19.33;;;;;;;20.58;100.00;100706.44;3605134;39;20051;-62
2021/07/25 07:39:59;;;;;;;28.67;19.55;;;;;;;20.68;100.00;100704.19;3603465;39;20116;-63
2021/07/25 07:42:25;;;;;;;30.00;20.20;;;;;;;20.99;100.00;100717.31;3604079;39;20044;-63
2021/07/25 07:44:52;;;;;;;23.33;18.10;;;;;;;20.73;100.00;100706.28;3604720;39;20405;-63
2021/07/25 07:47:22;;;;;;;21.88;17.67;;;;;;;20.68;100.00;100708.81;3605694;39;20039;-62
2021/07/25 07:49:49;;;;;;;20.05;17.10;;;;;;;20.80;100.00;100715.34;3607836;39;20048;-64
2021/07/25 07:52:15;;;;;;;23.20;18.55;;;;;;;20.52;100.00;100726.41;3605563;39;20094;-62
2021/07/25 07:54:42;;;;;;;24.73;17.85;;;;;;;20.48;100.00;100723.25;3603652;39;20411;-63
2021/07/25 07:57:08;;;;;;;21.67;17.00;;;;;;;20.43;100.00;100723.00;3608695;39;20054;-64
2021/07/25 07:59:35;;;;;;;21.60;17.05;;;;;;;20.42;100.00;100732.25;3605316;39;20383;-65
2021/07/25 08:02:02;;;;;;;26.05;17.50;;;;;;;20.23;100.00;100721.03;3601210;39;20361;-62
2021/07/25 08:04:29;;;;;;;22.23;17.15;;;;;;;20.47;100.00;100718.81;3602031;39;20048;-62
2021/07/25 08:06:56;;;;;;;23.13;17.33;;;;;;;20.73;100.00;100714.50;3603337;39;20043;-65
2021/07/25 08:09:22;;;;;;;22.77;17.55;;;;;;;20.86;100.00;100716.44;3607799;39;20395;-64
2021/07/25 08:11:49;;;;;;;21.92;16.33;;;;;;;21.34;100.00;100724.47;3601666;39;20397;-63
2021/07/25 08:14:16;;;;;;;23.08;16.73;;;;;;;21.86;100.00;100716.41;3605993;39;20108;-65
2021/07/25 08:16:43;;;;;;;22.95;16.48;;;;;;;22.07;100.00;100722.69;3605849;39;20103;-64
2021/07/25 08:19:10;;;;;;;20.38;16.10;;;;;;;21.98;100.00;100722.09;3608313;39;20043;-62
2021/07/25 08:21:39;;;;;;;19.70;16.45;;;;;;;21.70;100.00;100720.44;3605210;39;20035;-63
2021/07/25 08:24:06;;;;;;;22.48;18.10;;;;;;;20.99;100.00;100728.25;3603993;39;20046;-62
2021/07/25 08:26:33;;;;;;;22.75;17.27;;;;;;;21.04;100.00;100729.50;3608025;39;20047;-66
2021/07/25 08:28:59;;;;;;;22.75;17.60;;;;;;;21.26;100.00;100732.88;3603833;39;20048;-66
2021/07/25 08:31:25;;;;;;;21.70;17.05;;;;;;;21.29;100.00;100730.56;3605103;39;20051;-61
2021/07/25 08:33:52;;;;;;;21.23;16.38;;;;;;;21.70;100.00;100732.28;3606443;39;20035;-62
2021/07/25 08:36:18;;;;;;;22.00;15.50;;;;;;;22.06;100.00;100738.31;3605023;39;20032;-63
2021/07/25 08:38:47;;;;;;;20.33;14.63;;;;;;;22.00;100.00;100729.03;3604794;39;20408;-65
2021/07/25 08:41:15;;;;;;;18.02;15.10;;;;;;;21.86;100.00;100728.25;3607206;39;20066;-62
2021/07/25 08:43:44;;;;;;;18.07;13.97;;;;;;;22.16;100.00;100735.94;3604109;39;20032;-63
2021/07/25 08:46:16;;;;;;;20.38;15.02;;;;;;;21.79;100.00;100732.91;3605592;39;20267;-62
2021/07/25 08:48:48;;;;;;;20.17;15.23;;;;;;;21.63;100.00;100730.59;3602030;39;20282;-64
2021/07/25 08:51:17;;;;;;;19.95;14.85;;;;;;;21.75;100.00;100730.78;3600088;39;20275;-63
2021/07/25 08:53:50;;;;;;;20.27;16.48;;;;;;;22.14;100.00;100737.22;3607745;39;20389;-64
2021/07/25 08:56:18;;;;;;;24.75;17.27;;;;;;;21.89;100.00;100729.69;3607825;39;20065;-63
2021/07/25 08:58:47;;;;;;;17.60;15.53;;;;;;;21.73;100.00;100728.28;3602744;39;20060;-63
2021/07/25 09:01:15;;;;;;;19.42;16.13;;;;;;;21.84;100.00;100735.81;3607831;39;20055;-63
2021/07/25 09:03:42;;;;;;;20.70;16.20;;;;;;;21.88;100.00;100734.34;3606716;39;20048;-63
2021/07/25 09:06:10;;;;;;;21.15;16.70;;;;;;;22.09;100.00;100728.81;3600708;39;20497;-63
2021/07/25 09:08:37;;;;;;;21.38;16.38;;;;;;;22.44;100.00;100739.44;3605499;39;20036;-62
2021/07/25 09:11:07;;;;;;;21.15;15.52;;;;;;;22.53;100.00;100735.41;3607010;39;20038;-63
2021/07/25 09:13:34;;;;;;;18.85;14.82;;;;;;;22.74;100.00;100732.31;3601839;39;20066;-65
2021/07/25 09:16:00;;;;;;;17.90;13.73;;;;;;;23.17;100.00;100728.06;3604195;39;20034;-63
2021/07/25 09:18:27;;;;;;;15.32;12.63;;;;;;;22.97;100.00;100739.19;3607802;39;20539;-63
2021/07/25 09:20:53;;;;;;;18.80;15.43;;;;;;;23.27;100.00;100733.06;3603683;39;20400;-63
2021/07/25 09:23:21;;;;;;;16.00;13.15;;;;;;;23.62;100.00;100733.38;3598476;39;20052;-66
2021/07/25 09:25:49;;;;;;;16.98;13.45;;;;;;;23.43;100.00;100737.16;3600812;39;20064;-63
2021/07/25 09:28:38;;;;;;;15.60;11.68;;;;;;;23.37;100.00;100738.06;3598868;39;20129;-63
2021/07/25 09:31:13;;;;;;;18.77;14.15;;;;;;;23.05;100.00;100746.28;3599883;39;20289;-64
2021/07/25 09:33:43;;;;;;;19.25;13.90;;;;;;;22.54;100.00;100735.19;3605113;39;20430;-66
2021/07/25 09:36:16;;;;;;;18.38;14.15;;;;;;;22.44;100.00;100742.19;3603013;39;20051;-63
2021/07/25 09:38:44;;;;;;;16.35;14.38;;;;;;;22.11;100.00;100745.88;3603729;39;20030;-63
2021/07/25 09:41:21;;;;;;;16.55;14.68;;;;;;;22.18;100.00;100746.69;3605335;39;20040;-61
2021/07/25 09:44:08;;;;;;;16.73;13.93;;;;;;;22.37;100.00;100745.81;3603561;39;20103;-65
2021/07/25 09:46:53;;;;;;;18.35;13.45;;;;;;;22.98;100.00;100746.34;3601418;39;20048;-65
2021/07/25 09:49:20;;;;;;;17.15;13.73;;;;;;;23.21;100.00;100744.94;3604394;39;20141;-63
2021/07/25 09:51:47;;;;;;;16.25;12.45;;;;;;;23.62;100.00;100732.56;3602869;39;20036;-65
2021/07/25 09:54:13;;;;;;;14.75;12.57;;;;;;;24.01;100.00;100730.47;3604888;39;20024;-65
2021/07/25 09:56:40;;;;;;;17.98;13.73;;;;;;;24.14;100.00;100730.34;3602223;39;20034;-62
2021/07/25 09:59:27;;;;;;;17.50;12.35;;;;;;;24.72;100.00;100736.41;3603565;39;20032;-64
2021/07/25 10:01:53;;;;;;;17.50;13.50;;;;;;;24.76;100.00;100734.84;3595456;39;20036;-62
2021/07/25 10:04:23;;;;;;;16.08;12.75;;;;;;;24.42;100.00;100728.09;3605718;39;20028;-64
2021/07/25 10:06:51;;;;;;;16.85;13.73;;;;;;;24.61;100.00;100732.53;3605756;39;20031;-64
2021/07/25 10:09:19;;;;;;;15.05;12.10;;;;;;;24.71;100.00;100731.16;3606191;39;20383;-65
2021/07/25 10:11:48;;;;;;;15.65;12.32;;;;;;;25.26;100.00;100719.06;3603057;39;20066;-62
2021/07/25 10:14:18;;;;;;;14.23;11.60;;;;;;;26.23;100.00;100726.84;3602086;39;20036;-62
2021/07/25 10:16:51;;;;;;;15.00;11.27;;;;;;;26.69;100.00;100723.38;3602464;39;20062;-62
2021/07/25 10:19:23;;;;;;;15.65;11.73;;;;;;;26.16;100.00;100725.31;3604097;39;20043;-62
2021/07/25 10:21:51;;;;;;;14.32;11.85;;;;;;;26.18;100.00;100717.66;3602424;39;20058;-62
2021/07/25 10:24:19;;;;;;;15.48;13.15;;;;;;;26.54;100.00;100716.44;3604151;39;20073;-63
2021/07/25 10:26:46;;;;;;;17.63;13.57;;;;;;;26.37;100.00;100715.56;3604611;39;20043;-62
2021/07/25 10:29:13;;;;;;;16.88;13.63;;;;;;;26.35;100.00;100718.56;3605303;39;20349;-62
2021/07/25 10:31:42;;;;;;;15.27;12.13;;;;;;;26.67;100.00;100718.09;3604332;39;20274;-62
2021/07/25 10:34:12;;;;;;;17.10;12.38;;;;;;;27.58;100.00;100714.44;3606377;39;20384;-62
2021/07/25 10:36:40;;;;;;;14.68;11.07;;;;;;;27.62;100.00;100700.97;3604698;39;20031;-63
2021/07/25 10:39:07;;;;;;;17.50;13.48;;;;;;;27.38;100.00;100708.59;3604565;39;20055;-62
2021/07/25 10:41:33;;;;;;;13.15;11.40;;;;;;;27.36;100.00;100702.47;3606215;39;20031;-63
2021/07/25 10:44:02;;;;;;;13.93;11.73;;;;;;;27.41;100.00;100703.41;3605742;39;20062;-63
2021/07/25 10:46:29;;;;;;;;;;;;;;;27.46;100.00;100705.41;3604879;39;20048;-62
2021/07/25 10:49:16;;;;;;;13.32;11.85;;;;;;;27.44;100.00;100702.03;3604404;39;20027;-62
2021/07/25 10:51:57;;;;;;;12.30;10.90;;;;;;;27.83;100.00;100690.16;3603141;39;20036;-63
2021/07/25 10:54:33;;;;;;;15.57;13.23;;;;;;;27.56;100.00;100694.50;3603522;39;20059;-64
2021/07/25 10:57:01;;;;;;;15.43;12.43;;;;;;;27.66;100.00;100701.28;3608769;39;20040;-62
2021/07/25 10:59:40;;;;;;;14.07;11.27;;;;;;;27.61;100.00;100693.75;3600728;39;20098;-63
2021/07/25 11:02:09;;;;;;;11.85;10.52;;;;;;;27.25;100.00;100699.53;3604659;39;20043;-62
2021/07/25 11:05:03;;;;;;;13.05;10.75;;;;;;;26.98;100.00;100706.78;3605208;39;20046;-63
2021/07/25 11:07:38;;;;;;;15.30;11.20;;;;;;;26.54;100.00;100710.91;3606799;39;20339;-64
2021/07/25 11:10:16;;;;;;;13.32;10.93;;;;;;;25.63;100.00;100710.63;3602394;39;20028;-62
2021/07/25 11:13:16;;;;;;;14.73;11.35;;;;;;;25.61;100.00;100716.38;3607353;39;20032;-62